createdAt,value
2017-10-28T00:00:06.006Z,86.32
2017-10-28T00:02:33.896Z,86.41
2017-10-28T00:05:01.420Z,86.96
2017-10-28T00:07:29.053Z,86.54
2017-10-28T00:09:57.040Z,86.46
2017-10-28T00:12:24.588Z,86.58
2017-10-28T00:14:52.117Z,86.79
2017-10-28T00:17:19.656Z,86.84
2017-10-28T00:19:47.182Z,86.82
2017-10-28T00:22:14.714Z,86.65
2017-10-28T00:24:42.291Z,86.76
2017-10-28T00:27:09.950Z,87.11
2017-10-28T00:29:37.737Z,86.70
2017-10-28T00:35:14.197Z,87.18
2017-10-28T00:37:41.881Z,86.49
2017-10-28T00:40:09.648Z,86.04
2017-10-28T00:42:37.289Z,86.55
2017-10-28T00:45:04.857Z,86.59
2017-10-28T00:47:32.424Z,86.04
2017-10-28T00:49:59.949Z,86.11
2017-10-28T00:52:27.531Z,86.24
2017-10-28T00:54:55.059Z,86.23
2017-10-28T00:57:22.634Z,86.00
2017-10-28T00:59:50.169Z,85.59
2017-10-28T01:02:17.780Z,85.36
2017-10-28T01:04:45.844Z,85.30
2017-10-28T01:07:13.373Z,85.63
2017-10-28T01:09:40.937Z,85.47
2017-10-28T01:12:08.535Z,85.77
2017-10-28T01:14:36.195Z,85.20
2017-10-28T01:17:03.721Z,85.41
2017-10-28T01:19:31.295Z,85.38
2017-10-28T01:21:58.821Z,85.90
2017-10-28T01:24:26.442Z,85.94
2017-10-28T01:26:53.986Z,85.25
2017-10-28T01:29:21.520Z,85.99
2017-10-28T01:31:49.083Z,85.71
2017-10-28T01:34:16.633Z,85.75
2017-10-28T01:36:44.167Z,85.57
2017-10-28T01:39:11.697Z,85.69
2017-10-28T01:41:39.268Z,85.46
2017-10-28T01:44:06.799Z,85.88
2017-10-28T01:46:34.361Z,85.46
2017-10-28T01:49:01.885Z,85.66
2017-10-28T01:51:32.381Z,85.99
2017-10-28T01:53:59.921Z,86.07
2017-10-28T01:56:27.450Z,85.96
2017-10-28T01:58:55.973Z,85.59
2017-10-28T02:01:23.532Z,85.90
2017-10-28T02:03:51.053Z,85.96
2017-10-28T02:06:18.652Z,86.01
2017-10-28T02:08:46.181Z,85.29
2017-10-28T02:11:13.772Z,86.10
2017-10-28T02:13:41.295Z,87.04
2017-10-28T02:16:09.057Z,88.24
2017-10-28T02:18:36.622Z,89.40
2017-10-28T02:21:04.237Z,89.99
2017-10-28T02:23:31.772Z,90.54
2017-10-28T02:25:59.299Z,90.86
2017-10-28T02:28:26.827Z,91.10
2017-10-28T02:30:54.466Z,90.40
2017-10-28T02:33:22.065Z,90.53
2017-10-28T02:35:49.683Z,89.96
2017-10-28T02:38:17.217Z,89.40
2017-10-28T02:40:44.749Z,89.99
2017-10-28T02:43:12.309Z,89.96
2017-10-28T02:45:39.835Z,90.09
2017-10-28T02:48:07.353Z,90.23
2017-10-28T02:50:35.243Z,89.63
2017-10-28T02:53:02.802Z,89.91
2017-10-28T02:55:30.324Z,89.97
2017-10-28T02:57:57.904Z,90.20
2017-10-28T03:00:25.434Z,90.36
2017-10-28T03:02:53.428Z,90.90
2017-10-28T03:05:21.288Z,91.59
2017-10-28T03:07:48.849Z,92.20
2017-10-28T03:10:17.589Z,92.89
2017-10-28T03:12:45.161Z,93.23
2017-10-28T03:15:12.697Z,93.53
2017-10-28T03:17:40.226Z,93.55
2017-10-28T03:20:07.755Z,93.32
2017-10-28T03:22:35.283Z,93.34
2017-10-28T03:25:02.830Z,93.50
2017-10-28T03:27:30.358Z,93.73
2017-10-28T03:29:57.886Z,93.66
2017-10-28T03:32:25.456Z,93.72
2017-10-28T03:34:52.988Z,94.34
2017-10-28T03:37:20.521Z,94.45
2017-10-28T03:39:48.086Z,94.29
2017-10-28T03:42:15.655Z,94.65
2017-10-28T03:44:43.177Z,94.70
2017-10-28T03:47:10.778Z,95.07
2017-10-28T03:49:39.102Z,95.10
2017-10-28T03:52:06.628Z,94.93
2017-10-28T03:54:34.292Z,94.88
2017-10-28T03:57:01.821Z,94.64
2017-10-28T03:59:29.397Z,95.20
2017-10-28T04:01:56.970Z,95.19
2017-10-28T04:04:24.515Z,95.45
2017-10-28T04:06:52.050Z,95.50
2017-10-28T04:09:19.589Z,95.23
2017-10-28T04:11:47.196Z,95.62
2017-10-28T04:14:14.721Z,95.47
2017-10-28T04:16:42.320Z,95.91
2017-10-28T04:19:09.881Z,95.83
2017-10-28T04:21:37.453Z,95.50
2017-10-28T04:24:05.513Z,95.69
2017-10-28T04:26:33.037Z,96.23
2017-10-28T04:29:00.631Z,96.07
2017-10-28T04:31:28.172Z,96.15
2017-10-28T04:33:55.700Z,95.66
2017-10-28T04:36:23.322Z,95.34
2017-10-28T04:38:50.905Z,95.63
2017-10-28T04:41:18.429Z,96.24
2017-10-28T04:43:46.286Z,96.09
2017-10-28T04:46:13.821Z,95.92
2017-10-28T04:48:41.356Z,96.12
2017-10-28T04:51:08.895Z,95.72
2017-10-28T04:53:36.429Z,95.65
2017-10-28T04:56:04.020Z,95.52
2017-10-28T04:58:31.568Z,95.25
2017-10-28T05:00:59.134Z,95.08
2017-10-28T05:03:26.677Z,95.05
2017-10-28T05:05:54.204Z,94.66
2017-10-28T05:08:21.739Z,95.16
2017-10-28T05:10:50.159Z,94.68
2017-10-28T05:13:17.746Z,94.43
2017-10-28T05:15:45.325Z,94.53
2017-10-28T05:18:12.858Z,94.49
2017-10-28T05:20:40.442Z,94.30
2017-10-28T05:23:08.056Z,93.94
2017-10-28T05:25:35.751Z,94.35
2017-10-28T05:28:03.281Z,94.33
2017-10-28T05:30:30.812Z,93.68
2017-10-28T05:32:58.688Z,93.29
2017-10-28T05:35:26.212Z,93.23
2017-10-28T05:37:53.871Z,93.28
2017-10-28T05:40:21.405Z,92.52
2017-10-28T05:42:48.937Z,91.86
2017-10-28T05:45:16.472Z,91.66
2017-10-28T05:47:44.001Z,91.94
2017-10-28T05:50:11.537Z,91.56
2017-10-28T05:52:39.062Z,90.84
2017-10-28T05:55:06.586Z,90.55
2017-10-28T05:57:34.110Z,89.84
2017-10-28T06:00:01.641Z,90.40
2017-10-28T06:02:29.166Z,90.65
2017-10-28T06:04:56.826Z,89.67
2017-10-28T06:07:24.390Z,89.00
2017-10-28T06:09:51.947Z,89.00
2017-10-28T06:12:19.476Z,89.46
2017-10-28T06:14:47.000Z,89.92
2017-10-28T06:17:14.526Z,89.88
2017-10-28T06:19:42.052Z,90.27
2017-10-28T06:22:09.845Z,90.46
2017-10-28T06:24:37.464Z,90.33
2017-10-28T06:27:04.996Z,90.16
2017-10-28T06:29:32.534Z,91.23
2017-10-28T06:32:00.061Z,90.99
2017-10-28T06:34:27.589Z,91.83
2017-10-28T06:36:55.164Z,91.34
2017-10-28T06:39:22.696Z,91.46
2017-10-28T06:41:50.226Z,90.98
2017-10-28T06:44:17.773Z,90.81
2017-10-28T06:46:45.301Z,90.96
2017-10-28T06:49:12.822Z,91.49
2017-10-28T06:51:40.351Z,90.95
2017-10-28T06:54:07.912Z,91.17
2017-10-28T06:56:35.440Z,90.47
2017-10-28T06:59:03.024Z,89.46
2017-10-28T07:01:30.617Z,90.63
2017-10-28T07:03:58.146Z,89.63
2017-10-28T07:06:32.854Z,88.81
2017-10-28T07:09:00.462Z,88.40
2017-10-28T07:11:27.995Z,88.54
2017-10-28T07:13:55.567Z,88.41
2017-10-28T07:16:23.773Z,88.09
2017-10-28T07:18:51.322Z,87.80
2017-10-28T07:21:18.853Z,88.99
2017-10-28T07:23:46.390Z,87.94
2017-10-28T07:26:13.998Z,87.93
2017-10-28T07:28:41.541Z,87.39
2017-10-28T07:31:09.123Z,87.07
2017-10-28T07:33:36.654Z,87.34
2017-10-28T07:36:04.236Z,86.85
2017-10-28T07:38:31.877Z,86.08
2017-10-28T07:40:59.410Z,85.86
2017-10-28T07:43:26.951Z,85.44
2017-10-28T07:45:54.488Z,85.64
2017-10-28T07:48:22.017Z,85.27
2017-10-28T07:50:50.513Z,85.85
2017-10-28T07:53:18.104Z,84.56
2017-10-28T07:55:45.661Z,85.12
2017-10-28T07:58:13.184Z,84.92
2017-10-28T08:00:40.712Z,83.76
2017-10-28T08:03:08.250Z,82.84
2017-10-28T08:05:35.924Z,82.97
2017-10-28T08:08:03.523Z,82.70
2017-10-28T08:10:31.053Z,82.50
2017-10-28T08:12:58.641Z,82.45
2017-10-28T08:15:26.221Z,82.58
2017-10-28T08:17:53.756Z,82.56
2017-10-28T08:20:21.288Z,83.76
2017-10-28T08:22:48.825Z,81.77
2017-10-28T08:25:16.358Z,81.53
2017-10-28T08:27:43.892Z,82.19
2017-10-28T08:30:11.427Z,81.84
2017-10-28T08:32:38.952Z,80.89
2017-10-28T08:35:06.621Z,80.86
2017-10-28T08:37:34.170Z,81.50
2017-10-28T08:40:01.701Z,80.97
2017-10-28T08:42:29.237Z,81.41
2017-10-28T08:44:56.780Z,81.46
2017-10-28T08:47:24.792Z,81.54
2017-10-28T08:49:52.320Z,80.96
2017-10-28T08:52:19.844Z,81.17
2017-10-28T08:54:47.908Z,80.27
2017-10-28T08:57:15.443Z,80.32
2017-10-28T08:59:42.972Z,81.10
2017-10-28T09:02:10.509Z,80.56
2017-10-28T09:04:38.051Z,80.40
2017-10-28T09:07:05.640Z,80.12
2017-10-28T09:09:33.169Z,80.05
2017-10-28T09:12:01.094Z,79.05
2017-10-28T09:14:28.667Z,79.00
2017-10-28T09:16:56.196Z,78.22
2017-10-28T09:19:24.336Z,79.48
2017-10-28T09:21:51.867Z,78.42
2017-10-28T09:24:19.440Z,77.96
2017-10-28T09:26:47.011Z,78.17
2017-10-28T09:29:14.700Z,78.14
2017-10-28T09:31:42.315Z,78.27
2017-10-28T09:34:10.006Z,79.22
2017-10-28T09:36:37.536Z,78.64
2017-10-28T09:39:05.104Z,77.54
2017-10-28T09:41:32.662Z,77.64
2017-10-28T09:44:00.205Z,78.18
2017-10-28T09:46:27.934Z,78.41
2017-10-28T09:48:55.580Z,78.22
2017-10-28T09:51:23.148Z,77.71
2017-10-28T09:53:50.717Z,78.42
2017-10-28T09:56:18.301Z,78.30
2017-10-28T09:58:45.934Z,77.16
2017-10-28T10:01:13.471Z,77.00
2017-10-28T10:03:41.057Z,77.23
2017-10-28T10:06:08.599Z,77.44
2017-10-28T10:08:36.128Z,77.90
2017-10-28T10:11:03.720Z,76.96
2017-10-28T10:13:31.288Z,77.36
2017-10-28T10:15:58.815Z,76.53
2017-10-28T10:18:26.409Z,77.73
2017-10-28T10:20:53.963Z,76.90
2017-10-28T10:23:21.496Z,78.12
2017-10-28T10:25:49.026Z,77.98
2017-10-28T10:28:16.556Z,78.46
2017-10-28T10:30:44.090Z,78.37
2017-10-28T10:33:11.629Z,77.54
2017-10-28T10:35:39.204Z,76.89
2017-10-28T10:38:06.749Z,77.96
2017-10-28T10:40:34.277Z,78.17
2017-10-28T10:43:01.813Z,78.59
2017-10-28T10:45:29.354Z,78.69
2017-10-28T10:47:57.036Z,78.08
2017-10-28T10:50:32.844Z,78.68
2017-10-28T10:53:00.439Z,78.04
2017-10-28T10:55:28.018Z,77.36
2017-10-28T10:57:55.555Z,77.87
2017-10-28T11:00:23.603Z,77.71
2017-10-28T11:02:51.142Z,78.23
2017-10-28T11:05:18.742Z,76.92
2017-10-28T11:07:46.331Z,77.58
2017-10-28T11:10:13.863Z,77.06
2017-10-28T11:12:41.399Z,76.72
2017-10-28T11:15:08.934Z,76.40
2017-10-28T11:17:36.479Z,76.46
2017-10-28T11:20:04.013Z,77.14
2017-10-28T11:22:31.553Z,78.16
2017-10-28T11:24:59.090Z,77.60
2017-10-28T11:27:26.627Z,76.67
2017-10-28T11:29:54.168Z,77.41
2017-10-28T11:32:21.728Z,78.02
2017-10-28T11:34:49.270Z,77.72
2017-10-28T11:37:17.457Z,77.24
2017-10-28T11:39:45.557Z,77.10
2017-10-28T11:42:13.097Z,76.50
2017-10-28T11:44:40.630Z,77.81
2017-10-28T11:47:08.160Z,76.53
2017-10-28T11:49:35.816Z,76.77
2017-10-28T11:52:03.345Z,76.46
2017-10-28T11:54:30.877Z,75.96
2017-10-28T11:56:58.456Z,76.79
2017-10-28T11:59:25.997Z,76.69
2017-10-28T12:01:53.535Z,76.07
2017-10-28T12:04:21.072Z,75.98
2017-10-28T12:06:48.614Z,74.86
2017-10-28T12:09:17.187Z,75.50
2017-10-28T12:11:44.745Z,75.01
2017-10-28T12:14:12.278Z,74.56
2017-10-28T12:16:39.839Z,75.01
2017-10-28T12:19:07.507Z,74.66
2017-10-28T12:21:35.085Z,74.14
2017-10-28T12:24:02.621Z,75.49
2017-10-28T12:26:30.154Z,75.20
2017-10-28T12:29:00.908Z,75.07
2017-10-28T12:31:28.492Z,74.67
2017-10-28T12:33:56.071Z,75.00
2017-10-28T12:36:23.605Z,74.90
2017-10-28T12:38:51.144Z,74.58
2017-10-28T12:41:18.715Z,75.02
2017-10-28T12:43:46.249Z,74.68
2017-10-28T12:46:13.788Z,73.98
2017-10-28T12:48:41.334Z,74.84
2017-10-28T12:51:08.879Z,73.91
2017-10-28T12:53:36.461Z,74.72
2017-10-28T12:56:03.998Z,73.98
2017-10-28T12:58:31.662Z,73.49
2017-10-28T13:00:59.202Z,74.85
2017-10-28T13:03:26.748Z,72.98
2017-10-28T13:05:54.355Z,73.25
2017-10-28T13:08:21.981Z,72.90
2017-10-28T13:10:49.511Z,72.82
2017-10-28T13:13:17.560Z,72.62
2017-10-28T13:15:46.716Z,73.17
2017-10-28T13:18:14.468Z,73.48
2017-10-28T13:20:42.058Z,73.31
2017-10-28T13:23:09.595Z,74.10
2017-10-28T13:25:37.124Z,73.63
2017-10-28T13:28:05.548Z,72.51
2017-10-28T13:30:33.082Z,74.54
2017-10-28T13:33:00.667Z,72.59
2017-10-28T13:35:28.206Z,73.52
2017-10-28T13:37:56.402Z,72.58
2017-10-28T13:40:23.989Z,74.49
2017-10-28T13:42:51.528Z,73.27
2017-10-28T13:45:19.066Z,72.51
2017-10-28T13:47:46.597Z,73.50
2017-10-28T13:50:14.125Z,72.90
2017-10-28T13:52:41.702Z,71.74
2017-10-28T13:55:09.676Z,72.37
2017-10-28T13:57:37.223Z,73.16
2017-10-28T14:00:04.755Z,72.03
2017-10-28T14:02:32.290Z,71.91
2017-10-28T14:04:59.833Z,72.60
2017-10-28T14:07:27.376Z,72.83
2017-10-28T14:09:54.946Z,72.69
2017-10-28T14:12:22.495Z,73.47
2017-10-28T14:14:50.097Z,72.86
2017-10-28T14:17:17.625Z,73.66
2017-10-28T14:19:45.165Z,72.45
2017-10-28T14:22:12.704Z,73.51
2017-10-28T14:24:40.236Z,73.39
2017-10-28T14:27:07.772Z,72.79
2017-10-28T14:29:35.314Z,73.43
2017-10-28T14:32:02.897Z,72.85
2017-10-28T14:34:30.432Z,73.27
2017-10-28T14:36:58.408Z,73.84
2017-10-28T14:39:25.946Z,72.94
2017-10-28T14:41:53.483Z,73.07
2017-10-28T14:44:21.160Z,73.00
2017-10-28T14:46:48.689Z,73.27
2017-10-28T14:49:17.198Z,73.27
2017-10-28T14:51:44.737Z,72.92
2017-10-28T14:54:12.274Z,72.94
2017-10-28T14:56:39.807Z,73.26
2017-10-28T14:59:07.343Z,73.40
2017-10-28T15:01:34.913Z,72.88
2017-10-28T15:04:02.453Z,73.46
2017-10-28T15:06:29.984Z,72.69
2017-10-28T15:08:57.522Z,73.85
2017-10-28T15:11:25.089Z,73.70
2017-10-28T15:13:52.630Z,72.96
2017-10-28T15:16:20.164Z,73.26
2017-10-28T15:18:47.714Z,74.09
2017-10-28T15:21:15.236Z,74.01
2017-10-28T15:23:42.778Z,73.00
2017-10-28T15:26:10.317Z,73.36
2017-10-28T15:28:37.858Z,72.95
2017-10-28T15:31:05.398Z,73.67
2017-10-28T15:33:32.960Z,73.46
2017-10-28T15:36:00.521Z,73.48
2017-10-28T15:38:28.061Z,73.25
2017-10-28T15:40:55.641Z,73.01
2017-10-28T15:43:23.190Z,73.41
2017-10-28T15:45:50.728Z,72.67
2017-10-28T15:48:18.264Z,73.20
2017-10-28T15:50:45.953Z,73.05
2017-10-28T15:53:13.892Z,73.51
2017-10-28T15:55:41.599Z,73.59
2017-10-28T15:58:09.187Z,73.97
2017-10-28T16:00:36.727Z,73.31
2017-10-28T16:03:04.266Z,72.81
2017-10-28T16:05:31.800Z,73.29
2017-10-28T16:07:59.375Z,73.26
2017-10-28T16:10:26.913Z,72.83
2017-10-28T16:12:54.445Z,73.08
2017-10-28T16:15:21.990Z,72.92
2017-10-28T16:17:49.525Z,72.85
2017-10-28T16:20:17.493Z,73.04
2017-10-28T16:22:45.028Z,72.90
2017-10-28T16:25:12.593Z,72.79
2017-10-28T16:27:40.122Z,72.52
2017-10-28T16:30:07.712Z,72.65
2017-10-28T16:32:35.292Z,72.76
2017-10-28T16:35:02.824Z,73.49
2017-10-28T16:37:30.404Z,73.65
2017-10-28T16:39:58.487Z,73.50
2017-10-28T16:42:26.021Z,73.66
2017-10-28T16:44:53.585Z,74.11
2017-10-28T16:47:21.156Z,74.06
2017-10-28T16:49:48.720Z,74.09
2017-10-28T16:52:16.256Z,73.29
2017-10-28T16:54:43.789Z,72.88
2017-10-28T16:57:11.328Z,73.35
2017-10-28T16:59:38.900Z,73.69
2017-10-28T17:02:07.386Z,73.25
2017-10-28T17:04:34.977Z,74.08
2017-10-28T17:07:02.525Z,73.25
2017-10-28T17:09:30.059Z,72.73
2017-10-28T17:11:57.592Z,72.74
2017-10-28T17:14:27.433Z,73.05
2017-10-28T17:16:56.686Z,72.66
2017-10-28T17:19:24.301Z,73.39
2017-10-28T17:21:51.957Z,73.73
2017-10-28T17:24:20.192Z,73.92
2017-10-28T17:26:48.919Z,74.42
2017-10-28T17:29:16.613Z,74.76
2017-10-28T17:31:44.201Z,75.05
2017-10-28T17:34:11.733Z,75.54
2017-10-28T17:36:39.290Z,76.39
2017-10-28T17:39:07.777Z,76.21
2017-10-28T17:41:35.312Z,77.03
2017-10-28T17:44:03.768Z,77.49
2017-10-28T17:46:31.345Z,77.42
2017-10-28T17:48:59.704Z,78.23
2017-10-28T17:51:27.713Z,78.46
2017-10-28T17:53:55.249Z,79.13
2017-10-28T17:56:23.665Z,79.75
2017-10-28T17:58:53.580Z,80.23
2017-10-28T18:01:22.320Z,80.57
2017-10-28T18:03:50.696Z,79.94
2017-10-28T18:06:18.973Z,79.60
2017-10-28T18:08:46.741Z,78.93
2017-10-28T18:11:14.777Z,78.67
2017-10-28T18:13:42.308Z,77.89
2017-10-28T18:16:09.839Z,77.22
2017-10-28T18:18:37.380Z,76.54
2017-10-28T18:21:04.916Z,76.79
2017-10-28T18:23:32.445Z,75.93
2017-10-28T18:25:59.977Z,76.04
2017-10-28T18:28:27.531Z,76.13
2017-10-28T18:30:55.071Z,76.48
2017-10-28T18:33:23.542Z,76.30
2017-10-28T18:35:51.070Z,76.05
2017-10-28T18:38:21.710Z,76.72
2017-10-28T18:40:49.250Z,76.96
2017-10-28T18:43:20.487Z,77.91
2017-10-28T18:45:49.102Z,78.02
2017-10-28T18:48:16.630Z,79.80
2017-10-28T18:50:44.169Z,80.38
2017-10-28T18:53:11.706Z,82.02
2017-10-28T18:55:39.239Z,82.91
2017-10-28T18:58:06.775Z,83.33
2017-10-28T19:00:34.340Z,83.32
2017-10-28T19:03:01.873Z,83.75
2017-10-28T19:05:29.445Z,84.13
2017-10-28T19:07:56.998Z,84.38
2017-10-28T19:10:24.533Z,85.54
2017-10-28T19:12:52.067Z,86.91
2017-10-28T19:15:19.632Z,89.41
2017-10-28T19:17:47.716Z,89.95
2017-10-28T19:20:15.265Z,91.10
2017-10-28T19:22:42.857Z,90.87
2017-10-28T19:25:10.401Z,91.19
2017-10-28T19:27:37.946Z,91.59
2017-10-28T19:30:05.493Z,91.41
2017-10-28T19:32:33.963Z,91.10
2017-10-28T19:35:01.501Z,91.02
2017-10-28T19:37:29.050Z,90.32
2017-10-28T19:39:56.590Z,90.22
2017-10-28T19:42:24.700Z,89.92
2017-10-28T19:44:52.275Z,88.78
2017-10-28T19:47:20.318Z,90.08
2017-10-28T19:49:50.241Z,89.58
2017-10-28T19:52:18.946Z,89.12
2017-10-28T19:54:46.484Z,90.73
2017-10-28T19:57:14.032Z,90.23
2017-10-28T19:59:41.570Z,90.62
2017-10-28T20:02:09.105Z,91.34
2017-10-28T20:04:36.688Z,92.09
2017-10-28T20:07:04.241Z,92.40
2017-10-28T20:09:31.825Z,92.65
2017-10-28T20:12:03.439Z,93.32
2017-10-28T20:14:31.092Z,93.11
2017-10-28T20:17:01.115Z,93.92
2017-10-28T20:19:28.661Z,93.55
2017-10-28T20:21:56.259Z,93.96
2017-10-28T20:24:23.845Z,94.17
2017-10-28T20:26:51.383Z,94.28
2017-10-28T20:29:19.224Z,94.76
2017-10-28T20:31:46.812Z,94.77
2017-10-28T20:34:14.340Z,95.00
2017-10-28T20:36:42.811Z,94.92
2017-10-28T20:39:10.374Z,94.87
2017-10-28T20:41:37.946Z,94.86
2017-10-28T20:44:05.479Z,94.62
2017-10-28T20:46:34.244Z,95.16
2017-10-28T20:49:02.543Z,94.79
2017-10-28T20:51:31.194Z,94.61
2017-10-28T20:53:58.728Z,94.45
2017-10-28T20:56:26.261Z,94.36
2017-10-28T20:58:53.797Z,94.57
2017-10-28T21:01:21.337Z,94.50
2017-10-28T21:03:48.880Z,94.52
2017-10-28T21:06:16.411Z,94.66
2017-10-28T21:08:43.947Z,94.97
2017-10-28T21:11:11.531Z,94.92
2017-10-28T21:13:40.495Z,94.93
2017-10-28T21:16:08.484Z,94.91
2017-10-28T21:18:39.765Z,95.14
2017-10-28T21:21:07.308Z,95.29
2017-10-28T21:23:35.580Z,95.46
2017-10-28T21:26:03.118Z,95.55
2017-10-28T21:28:32.451Z,95.20
2017-10-28T21:31:00.104Z,95.64
2017-10-28T21:33:27.632Z,95.61
2017-10-28T21:35:55.168Z,95.93
2017-10-28T21:38:22.803Z,95.64
2017-10-28T21:40:50.336Z,95.98
2017-10-28T21:43:17.903Z,96.14
2017-10-28T21:45:45.497Z,96.25
2017-10-28T21:48:13.434Z,95.88
2017-10-28T21:50:40.990Z,96.05
2017-10-28T21:53:08.524Z,96.60
2017-10-28T21:55:36.622Z,96.38
2017-10-28T21:58:04.157Z,96.48
2017-10-28T22:00:31.688Z,96.43
2017-10-28T22:02:59.250Z,96.61
2017-10-28T22:05:26.833Z,96.51
2017-10-28T22:07:54.362Z,96.71
2017-10-28T22:10:21.907Z,96.62
2017-10-28T22:12:49.436Z,96.88
2017-10-28T22:15:16.966Z,96.72
2017-10-28T22:17:44.492Z,96.77
2017-10-28T22:20:12.025Z,96.85
2017-10-28T22:22:39.569Z,96.95
2017-10-28T22:25:07.130Z,96.76
2017-10-28T22:27:34.760Z,96.80
2017-10-28T22:30:03.134Z,96.99
2017-10-28T22:32:31.209Z,96.90
2017-10-28T22:34:58.740Z,96.84
2017-10-28T22:37:26.282Z,97.35
2017-10-28T22:39:53.848Z,96.85
2017-10-28T22:42:21.385Z,96.79
2017-10-28T22:44:48.970Z,97.02
2017-10-28T22:47:16.504Z,97.28
2017-10-28T22:49:44.125Z,97.08
2017-10-28T22:52:11.681Z,97.14
2017-10-28T22:54:39.226Z,97.08
2017-10-28T22:57:06.769Z,97.31
2017-10-28T22:59:34.301Z,97.39
2017-10-28T23:02:02.469Z,97.22
2017-10-28T23:04:30.007Z,97.53
2017-10-28T23:06:57.531Z,97.35
2017-10-28T23:09:25.065Z,97.41
2017-10-28T23:11:52.589Z,97.53
2017-10-28T23:14:20.142Z,97.59
2017-10-28T23:16:47.685Z,97.49
2017-10-28T23:19:15.258Z,97.44
2017-10-28T23:21:42.800Z,97.47
2017-10-28T23:24:10.368Z,97.74
2017-10-28T23:26:37.913Z,98.05
2017-10-28T23:29:05.464Z,98.22
2017-10-28T23:31:33.002Z,98.17
2017-10-28T23:34:00.545Z,97.71
2017-10-28T23:36:28.081Z,97.80
2017-10-28T23:38:55.619Z,97.59
2017-10-28T23:41:23.152Z,97.41
2017-10-28T23:43:50.701Z,97.69
2017-10-28T23:46:18.324Z,97.56
2017-10-28T23:48:45.891Z,97.58
2017-10-28T23:51:13.421Z,97.31
2017-10-28T23:53:41.401Z,97.27
2017-10-28T23:56:08.934Z,96.91
2017-10-28T23:58:37.125Z,97.19
